Time;durP1;ratioP1;P1;durP2;ratioP2;P2;SDS_P1;SDS_P2;PMS_P1;PMS_P2;Temp;Humidity;BMP_temperature;BMP_pressure;BME280_temperature;BME280_humidity;BME280_pressure;Samples;Min_cycle;Max_cycle;Signal;HPM_P1;HPM_P2
2023/02/02 00:01:27;;;;;;;35.30;20.13;;;6.10;99.90;;;;;;5052978;28;20481;-46
2023/02/02 00:03:54;;;;;;;36.80;19.65;;;6.10;99.90;;;;;;5051934;28;20036;-46
2023/02/02 00:06:22;;;;;;;11.30;6.07;;;6.10;99.90;;;;;;5053081;28;20033;-46
2023/02/02 00:08:48;;;;;;;11.05;7.32;;;5.80;99.90;;;;;;5052838;28;20025;-46
2023/02/02 00:11:15;;;;;;;23.73;13.00;;;5.80;99.90;;;;;;5053216;28;20125;-46
2023/02/02 00:13:41;;;;;;;18.67;11.57;;;5.80;99.90;;;;;;5034407;28;20041;-46
2023/02/02 00:16:25;;;;;;;13.48;6.13;;;5.80;99.90;;;;;;5084536;28;20033;-46
2023/02/02 00:18:52;;;;;;;32.13;18.13;;;5.80;99.90;;;;;;5052737;28;20029;-46
2023/02/02 00:21:18;;;;;;;31.83;17.83;;;5.80;99.90;;;;;;5053435;28;20170;-46
2023/02/02 00:23:43;;;;;;;23.23;12.98;;;5.90;99.90;;;;;;5067485;28;20544;-46
2023/02/02 00:26:09;;;;;;;28.27;14.15;;;5.90;99.90;;;;;;5084341;28;20043;-46
2023/02/02 00:28:35;;;;;;;36.83;20.30;;;5.90;99.90;;;;;;5052572;28;20029;-47
2023/02/02 00:31:01;;;;;;;40.28;24.25;;;6.00;99.90;;;;;;5056620;28;20469;-46
2023/02/02 00:33:26;;;;;;;19.35;12.02;;;6.10;99.90;;;;;;5056986;28;20496;-46
2023/02/02 00:35:52;;;;;;;31.58;17.02;;;6.10;99.90;;;;;;5057014;28;20036;-46
2023/02/02 00:38:18;;;;;;;58.28;29.20;;;;;;;;;;5057394;28;20025;-46
2023/02/02 00:40:44;;;;;;;27.05;12.25;;;6.50;99.90;;;;;;5057526;28;20047;-46
2023/02/02 00:43:10;;;;;;;34.83;21.25;;;6.40;99.90;;;;;;5057791;28;20611;-50
2023/02/02 00:45:37;;;;;;;21.27;14.38;;;6.40;99.90;;;;;;5037936;28;20120;-47
2023/02/02 00:48:03;;;;;;;23.27;14.75;;;6.60;99.90;;;;;;5056792;28;20484;-46
2023/02/02 00:50:30;;;;;;;28.10;18.15;;;;;;;;;;5056559;28;20032;-46
2023/02/02 00:52:57;;;;;;;25.85;13.90;;;7.30;99.90;;;;;;5056181;28;20041;-46
2023/02/02 00:55:24;;;;;;;19.02;12.85;;;;;;;;;;5056520;28;20037;-46
2023/02/02 00:57:50;;;;;;;25.08;18.52;;;7.50;99.90;;;;;;5056297;28;20029;-46
2023/02/02 01:00:19;;;;;;;41.30;26.00;;;7.50;99.90;;;;;;5054987;28;20044;-46
2023/02/02 01:02:46;;;;;;;44.53;25.10;;;7.60;99.90;;;;;;5056163;28;20428;-46
2023/02/02 01:05:12;;;;;;;44.47;22.20;;;7.60;99.90;;;;;;5056875;28;20025;-46
2023/02/02 01:07:39;;;;;;;21.65;13.48;;;7.70;99.90;;;;;;5071594;28;20072;-46
2023/02/02 01:10:08;;;;;;;22.20;15.82;;;7.60;99.90;;;;;;5057142;28;20533;-46
2023/02/02 01:12:34;;;;;;;20.42;13.45;;;7.70;99.90;;;;;;5070942;28;20123;-46
2023/02/02 01:15:01;;;;;;;16.20;9.70;;;7.70;99.90;;;;;;5056349;28;20059;-46
2023/02/02 01:17:27;;;;;;;12.57;9.35;;;;;;;;;;5057104;28;20024;-46
2023/02/02 01:19:53;;;;;;;12.30;8.45;;;;;;;;;;5056215;28;20076;-45
2023/02/02 01:22:19;;;;;;;19.45;12.30;;;7.70;99.90;;;;;;5055867;28;20025;-46
2023/02/02 01:24:45;;;;;;;19.00;11.38;;;;;;;;;;5055773;28;20396;-46
2023/02/02 01:27:10;;;;;;;10.57;7.93;;;7.60;99.90;;;;;;5070833;28;20040;-46
2023/02/02 01:29:36;;;;;;;9.85;7.43;;;;;;;;;;5057117;28;20025;-46
2023/02/02 01:32:03;;;;;;;13.65;9.13;;;;;;;;;;5056800;28;20044;-46
2023/02/02 01:34:29;;;;;;;10.45;8.52;;;;;;;;;;5056734;28;20059;-45
2023/02/02 01:36:55;;;;;;;12.43;7.97;;;8.20;99.90;;;;;;5056711;28;20147;-46
2023/02/02 01:39:21;;;;;;;10.40;7.70;;;8.00;99.90;;;;;;5087185;28;20120;-46
2023/02/02 01:41:46;;;;;;;10.57;7.68;;;7.90;99.90;;;;;;5055392;28;20057;-46
2023/02/02 01:44:49;;;;;;;12.18;7.78;;;8.00;99.90;;;;;;5056069;28;20028;-46
2023/02/02 01:47:16;;;;;;;9.88;6.60;;;8.00;99.90;;;;;;5055531;28;20029;-46
2023/02/02 01:49:42;;;;;;;9.23;6.63;;;8.10;99.90;;;;;;5070225;28;20048;-46
2023/02/02 01:52:10;;;;;;;10.40;6.65;;;8.10;99.90;;;;;;5055357;28;20037;-48
2023/02/02 01:54:38;;;;;;;11.25;7.03;;;;;;;;;;5069855;28;20533;-46
2023/02/02 01:57:08;;;;;;;10.73;6.88;;;;;;;;;;5054997;28;20045;-46
2023/02/02 01:59:34;;;;;;;10.77;6.80;;;;;;;;;;5055530;28;20021;-46
2023/02/02 02:02:01;;;;;;;8.63;6.65;;;;;;;;;;5070023;28;20040;-46
2023/02/02 02:04:29;;;;;;;9.43;7.05;;;;;;;;;;5055249;28;20021;-46
2023/02/02 02:06:55;;;;;;;11.27;6.70;;;;;;;;;;5055171;28;20036;-47
2023/02/02 02:09:21;;;;;;;8.30;6.20;;;;;;;;;;5055365;28;20029;-46
2023/02/02 02:11:47;;;;;;;12.68;8.38;;;;;;;;;;5069738;28;20037;-46
2023/02/02 02:17:29;;;;;;;11.40;7.57;;;8.20;99.90;;;;;;5055009;28;20039;-46
2023/02/02 02:28:58;;;;;;;9.45;5.78;;;;;;;;;;5054590;28;20040;-46
2023/02/02 02:31:31;;;;;;;7.05;5.35;;;8.30;99.90;;;;;;5069113;28;20049;-46
2023/02/02 02:34:00;;;;;;;7.68;5.13;;;;;;;;;;5054613;28;20499;-46
2023/02/02 02:36:27;;;;;;;8.10;5.55;;;;;;;;;;5069568;28;20036;-46
2023/02/02 02:39:11;;;;;;;8.45;5.82;;;;;;;;;;5054668;28;20029;-45
2023/02/02 02:41:42;;;;;;;8.95;6.38;;;;;;;;;;5069401;28;20400;-45
2023/02/02 02:44:10;;;;;;;8.35;5.43;;;;;;;;;;5054600;28;20115;-46
2023/02/02 02:46:36;;;;;;;7.38;5.13;;;;;;;;;;5054261;28;20080;-46
2023/02/02 02:49:02;;;;;;;9.93;5.95;;;;;;;;;;5054424;28;20064;-46
2023/02/02 02:51:44;;;;;;;11.25;6.13;;;;;;;;;;5068387;28;20484;-46
2023/02/02 02:54:15;;;;;;;16.02;8.25;;;;;;;;;;5054063;28;20033;-46
2023/02/02 02:56:59;;;;;;;14.13;8.07;;;;;;;;;;5068304;28;20037;-46
2023/02/02 02:59:25;;;;;;;15.30;8.57;;;;;;;;;;5068011;28;20051;-46
2023/02/02 03:02:01;;;;;;;15.32;9.80;;;;;;;;;;5053248;28;20104;-45
2023/02/02 03:04:39;;;;;;;13.93;7.95;;;;;;;;;;5053151;28;20071;-46
2023/02/02 03:07:12;;;;;;;13.50;9.18;;;;;;;;;;5068024;28;20033;-46
2023/02/02 03:09:41;;;;;;;16.48;10.30;;;;;;;;;;5053131;28;20029;-46
2023/02/02 03:12:07;;;;;;;14.85;10.18;;;;;;;;;;5052963;28;20049;-46
2023/02/02 03:14:38;;;;;;;12.63;8.75;;;;;;;;;;5052957;28;20384;-46
2023/02/02 03:17:04;;;;;;;13.35;8.68;;;;;;;;;;5053382;28;20021;-45
2023/02/02 03:19:30;;;;;;;18.55;10.02;;;;;;;;;;5053122;28;20047;-46
2023/02/02 03:21:56;;;;;;;15.38;8.65;;;;;;;;;;5052796;28;20025;-45
2023/02/02 03:24:22;;;;;;;13.30;8.40;;;;;;;;;;5084174;28;20051;-46
2023/02/02 03:26:48;;;;;;;15.98;9.70;;;;;;;;;;5084220;28;20091;-45
2023/02/02 03:29:16;;;;;;;16.60;9.68;;;;;;;;;;5053032;28;20028;-46
2023/02/02 03:31:42;;;;;;;12.45;8.43;;;;;;;;;;5067543;28;20056;-46
2023/02/02 03:34:08;;;;;;;11.88;7.45;;;7.80;99.90;;;;;;5067680;28;20037;-46
2023/02/02 03:36:33;;;;;;;14.02;8.75;;;7.70;99.90;;;;;;5085557;28;20391;-46
2023/02/02 03:38:59;;;;;;;12.32;8.88;;;7.60;99.90;;;;;;5053152;28;20029;-46
2023/02/02 03:41:25;;;;;;;17.48;9.98;;;7.60;99.90;;;;;;5052598;28;20071;-46
2023/02/02 03:43:50;;;;;;;13.27;9.00;;;7.60;99.90;;;;;;5050785;28;20040;-46
2023/02/02 03:46:16;;;;;;;11.85;7.97;;;7.60;99.90;;;;;;5073916;28;20107;-46
2023/02/02 03:48:42;;;;;;;13.80;9.25;;;7.50;99.90;;;;;;5017345;28;20102;-46
2023/02/02 03:51:10;;;;;;;14.02;9.00;;;7.50;99.90;;;;;;5052790;28;20439;-46
2023/02/02 03:53:36;;;;;;;12.65;9.05;;;;;;;;;;5052413;28;20032;-47
2023/02/02 03:56:03;;;;;;;13.18;9.18;;;;;;;;;;5019274;28;1129239;-45
2023/02/02 03:58:29;;;;;;;14.57;9.13;;;7.20;99.90;;;;;;5061734;28;20098;-46
2023/02/02 04:01:02;;;;;;;16.05;9.55;;;7.70;99.90;;;;;;5053307;28;20029;-45
2023/02/02 04:03:28;;;;;;;16.77;10.40;;;7.50;99.90;;;;;;5052991;28;20032;-46
2023/02/02 04:05:54;;;;;;;15.43;9.73;;;7.30;99.90;;;;;;5053504;28;20028;-46
2023/02/02 04:08:20;;;;;;;14.98;8.73;;;7.30;99.90;;;;;;5053419;28;20489;-46
2023/02/02 04:10:46;;;;;;;18.20;9.23;;;7.30;99.90;;;;;;5051341;28;20123;-46
2023/02/02 04:13:11;;;;;;;14.48;7.93;;;7.30;99.90;;;;;;5053244;28;20123;-46
2023/02/02 04:15:37;;;;;;;10.50;7.13;;;7.40;99.90;;;;;;5052377;28;20017;-46
2023/02/02 04:18:03;;;;;;;10.73;7.18;;;7.40;99.90;;;;;;5058413;28;20120;-46
2023/02/02 04:20:28;;;;;;;12.45;7.57;;;7.40;99.90;;;;;;5037730;28;20095;-46
2023/02/02 04:22:54;;;;;;;16.15;8.98;;;7.40;99.90;;;;;;5056198;28;20443;-47
2023/02/02 04:25:20;;;;;;;14.95;8.88;;;7.40;99.90;;;;;;5057458;28;20037;-46
2023/02/02 04:27:45;;;;;;;13.35;8.85;;;7.40;99.90;;;;;;5056570;28;20407;-47
2023/02/02 04:30:11;;;;;;;18.88;11.32;;;7.40;99.90;;;;;;5056641;28;20033;-47
2023/02/02 04:32:37;;;;;;;24.85;15.52;;;7.40;99.90;;;;;;5069758;28;20045;-46
2023/02/02 04:35:03;;;;;;;24.08;13.48;;;7.20;99.90;;;;;;5053014;28;20029;-47
2023/02/02 04:37:32;;;;;;;25.15;13.73;;;7.30;99.90;;;;;;5068096;28;20202;-46
2023/02/02 04:39:58;;;;;;;28.33;13.32;;;7.40;99.90;;;;;;5070788;28;20040;-46
2023/02/02 04:42:24;;;;;;;28.15;14.50;;;7.50;99.90;;;;;;5071000;28;20565;-45
2023/02/02 04:44:49;;;;;;;14.23;9.07;;;7.40;99.90;;;;;;5070572;28;20056;-46
2023/02/02 04:47:15;;;;;;;33.35;14.23;;;7.40;99.90;;;;;;5070622;28;20115;-46
2023/02/02 04:49:41;;;;;;;13.57;8.43;;;7.30;99.90;;;;;;5070491;28;20052;-45
2023/02/02 04:52:06;;;;;;;19.50;13.20;;;7.30;99.90;;;;;;5070582;28;20056;-46
2023/02/02 04:54:33;;;;;;;12.52;8.40;;;7.30;99.90;;;;;;5053935;28;20136;-46
2023/02/02 04:56:58;;;;;;;25.05;11.40;;;7.30;99.90;;;;;;5070298;28;20055;-46
2023/02/02 04:59:27;;;;;;;25.40;16.33;;;7.30;99.90;;;;;;5053748;28;20053;-46
2023/02/02 05:01:53;;;;;;;25.98;15.50;;;7.40;99.90;;;;;;5070372;28;20124;-46
2023/02/02 05:04:18;;;;;;;16.10;10.60;;;7.10;99.90;;;;;;5070448;28;20119;-46
2023/02/02 05:06:44;;;;;;;15.65;10.07;;;6.90;99.90;;;;;;5036442;28;20071;-46
2023/02/02 05:09:10;;;;;;;18.02;10.23;;;6.90;99.90;;;;;;5070403;28;20032;-46
2023/02/02 05:11:37;;;;;;;15.60;9.23;;;6.90;99.90;;;;;;5056172;28;20052;-46
2023/02/02 05:14:04;;;;;;;20.45;11.95;;;6.50;99.90;;;;;;5052904;28;20036;-46
2023/02/02 05:16:30;;;;;;;24.13;13.30;;;;;;;;;;5055122;28;20037;-46
2023/02/02 05:18:58;;;;;;;29.25;18.88;;;;;;;;;;5070923;28;20481;-46
2023/02/02 05:21:24;;;;;;;28.23;18.23;;;;;;;;;;5056102;28;20028;-46
2023/02/02 05:23:50;;;;;;;32.03;20.70;;;;;;;;;;5055886;28;20503;-46
2023/02/02 05:26:24;;;;;;;30.05;18.58;;;;;;;;;;5055497;28;20134;-46
2023/02/02 05:28:50;;;;;;;28.17;18.02;;;;;;;;;;5055314;28;20021;-46
2023/02/02 05:31:17;;;;;;;25.63;18.63;;;;;;;;;;5055977;28;20029;-46
2023/02/02 05:33:42;;;;;;;25.25;17.55;;;7.30;99.90;;;;;;5070878;28;20064;-45
2023/02/02 05:36:09;;;;;;;26.52;17.80;;;7.40;99.90;;;;;;5055751;28;20468;-46
2023/02/02 05:38:35;;;;;;;24.75;16.20;;;7.40;99.90;;;;;;5037356;28;20451;-46
2023/02/02 05:41:01;;;;;;;29.48;17.02;;;7.50;99.90;;;;;;5087235;28;20040;-46
2023/02/02 05:43:29;;;;;;;28.40;16.05;;;7.60;99.90;;;;;;5053133;28;20488;-46
2023/02/02 05:45:55;;;;;;;33.53;16.63;;;;;;;;;;5055579;28;20028;-46
2023/02/02 05:48:21;;;;;;;21.25;14.57;;;;;;;;;;5053799;28;20388;-46
2023/02/02 05:50:49;;;;;;;17.05;11.65;;;;;;;;;;5053718;28;20049;-46
2023/02/02 05:53:16;;;;;;;29.95;16.02;;;;;;;;;;5036918;28;20397;-46
2023/02/02 05:55:42;;;;;;;23.67;17.25;;;;;;;;;;5054709;28;20045;-46
2023/02/02 05:58:08;;;;;;;32.38;21.98;;;;;;;;;;5055185;28;20029;-46
2023/02/02 06:00:34;;;;;;;28.17;19.30;;;;;;;;;;5055219;28;20080;-46
2023/02/02 06:03:00;;;;;;;41.38;27.00;;;;;;;;;;5054658;28;20082;-46
2023/02/02 06:05:26;;;;;;;37.75;24.55;;;;;;;;;;5054574;28;20052;-46
2023/02/02 06:07:52;;;;;;;38.58;26.45;;;7.20;99.90;;;;;;5055407;28;20041;-46
2023/02/02 06:10:18;;;;;;;35.42;23.33;;;;;;;;;;5054931;28;20044;-46
2023/02/02 06:12:44;;;;;;;34.65;21.40;;;6.20;99.90;;;;;;5055229;28;20362;-46
2023/02/02 06:15:10;;;;;;;38.38;26.75;;;5.80;99.90;;;;;;5054911;28;20032;-46
2023/02/02 06:17:36;;;;;;;26.17;18.95;;;5.70;99.90;;;;;;5036401;28;20044;-46
2023/02/02 06:20:02;;;;;;;26.42;18.25;;;5.90;99.90;;;;;;5055141;28;20029;-46
2023/02/02 06:22:29;;;;;;;24.83;17.67;;;6.00;99.90;;;;;;5036184;28;20044;-46
2023/02/02 06:24:55;;;;;;;31.63;22.83;;;6.30;99.90;;;;;;5054947;28;20736;-46
2023/02/02 06:27:20;;;;;;;24.33;18.77;;;6.60;99.90;;;;;;5054078;28;20086;-46
2023/02/02 06:29:46;;;;;;;20.45;14.07;;;6.80;99.90;;;;;;5055146;28;20554;-45
2023/02/02 06:32:12;;;;;;;33.40;17.63;;;;;;;;;;5019770;28;20053;-46
2023/02/02 06:34:38;;;;;;;40.42;24.33;;;;;;;;;;5054619;28;20044;-46
2023/02/02 06:37:05;;;;;;;53.72;36.85;;;;;;;;;;5054626;28;20032;-46
2023/02/02 06:39:31;;;;;;;46.35;34.13;;;;;;;;;;5054722;28;20539;-46
2023/02/02 06:41:56;;;;;;;52.70;32.40;;;7.40;99.90;;;;;;5069216;28;20041;-47
2023/02/02 06:44:22;;;;;;;46.05;28.52;;;7.90;99.90;;;;;;5054545;28;20033;-46
2023/02/02 06:46:48;;;;;;;54.00;34.75;;;7.40;99.90;;;;;;5054577;28;20040;-46
2023/02/02 06:49:14;;;;;;;66.85;41.90;;;;;;;;;;5054570;28;20025;-46
2023/02/02 06:51:40;;;;;;;65.63;40.28;;;;;;;;;;5069083;28;20045;-46
2023/02/02 06:54:06;;;;;;;70.85;43.97;;;6.80;99.90;;;;;;5054531;28;20037;-46
2023/02/02 06:56:31;;;;;;;63.58;35.42;;;6.60;99.90;;;;;;5054257;28;20051;-46
2023/02/02 06:58:57;;;;;;;67.88;33.33;;;6.30;99.90;;;;;;5019244;28;20037;-46
2023/02/02 07:01:23;;;;;;;34.63;19.35;;;6.00;99.90;;;;;;5054163;28;20043;-46
2023/02/02 07:03:50;;;;;;;22.13;13.57;;;5.80;99.90;;;;;;5054132;28;20036;-46
2023/02/02 07:06:25;;;;;;;13.27;8.32;;;5.60;99.90;;;;;;5054025;28;20045;-46
2023/02/02 07:08:52;;;;;;;20.60;13.48;;;5.30;99.90;;;;;;5019119;28;20040;-46
2023/02/02 07:11:18;;;;;;;23.70;13.48;;;5.30;99.90;;;;;;5053981;28;20538;-46
2023/02/02 07:13:44;;;;;;;22.15;14.95;;;5.40;99.90;;;;;;5054230;28;20033;-46
2023/02/02 07:16:11;;;;;;;19.80;12.30;;;5.50;99.90;;;;;;5053821;28;20033;-46
2023/02/02 07:18:38;;;;;;;23.27;16.48;;;5.60;99.90;;;;;;5085103;28;20397;-46
2023/02/02 07:21:04;;;;;;;21.08;13.00;;;6.00;99.90;;;;;;5052035;28;20033;-47
2023/02/02 07:23:31;;;;;;;21.52;14.32;;;6.10;99.90;;;;;;5053771;28;20037;-46
2023/02/02 07:26:01;;;;;;;22.23;14.02;;;6.10;99.90;;;;;;5053886;28;20112;-46
2023/02/02 07:28:27;;;;;;;19.35;13.75;;;6.20;99.90;;;;;;5035176;28;20128;-46
2023/02/02 07:30:52;;;;;;;20.50;12.48;;;6.10;99.90;;;;;;5053611;28;20535;-45
2023/02/02 07:33:18;;;;;;;17.88;11.43;;;6.20;99.90;;;;;;5053397;28;20127;-45
2023/02/02 07:35:44;;;;;;;14.25;8.70;;;6.20;99.90;;;;;;5053608;28;20044;-46
2023/02/02 07:38:09;;;;;;;20.60;13.38;;;6.10;99.90;;;;;;5053064;28;20033;-46
2023/02/02 07:40:35;;;;;;;17.65;13.43;;;6.20;99.90;;;;;;5053766;28;20033;-47
2023/02/02 07:43:01;;;;;;;18.33;12.70;;;6.20;99.90;;;;;;5054217;28;20454;-45
2023/02/02 07:45:27;;;;;;;22.95;15.82;;;6.10;99.90;;;;;;5085021;28;20049;-46
2023/02/02 07:47:57;;;;;;;20.77;14.27;;;6.20;99.90;;;;;;5053221;28;20028;-46
2023/02/02 07:50:24;;;;;;;27.75;15.43;;;6.20;99.90;;;;;;5053307;28;20385;-45
2023/02/02 07:52:50;;;;;;;11.57;7.55;;;6.20;99.90;;;;;;5053582;28;20121;-46
2023/02/02 07:55:16;;;;;;;8.95;6.18;;;6.00;99.90;;;;;;5049952;28;20025;-46
2023/02/02 07:57:42;;;;;;;17.85;11.20;;;6.00;99.90;;;;;;5053274;28;20111;-47
2023/02/02 08:00:08;;;;;;;15.07;10.88;;;6.10;99.90;;;;;;5053614;28;20037;-46
2023/02/02 08:02:34;;;;;;;18.15;12.38;;;6.10;99.90;;;;;;5034618;28;20036;-46
2023/02/02 08:05:00;;;;;;;19.13;12.00;;;6.10;99.90;;;;;;5050569;28;20373;-46
2023/02/02 08:07:26;;;;;;;16.30;11.13;;;6.20;99.90;;;;;;5052941;28;20029;-46
2023/02/02 08:09:51;;;;;;;17.65;11.32;;;6.20;99.90;;;;;;5051209;28;20045;-46
2023/02/02 08:12:19;;;;;;;16.17;10.85;;;6.30;99.90;;;;;;5053273;28;20039;-46
2023/02/02 08:14:46;;;;;;;14.40;10.88;;;6.20;99.90;;;;;;5053165;28;20044;-46
2023/02/02 08:17:12;;;;;;;17.55;11.30;;;6.10;99.90;;;;;;5051154;28;20374;-46
2023/02/02 08:19:37;;;;;;;11.45;8.40;;;6.10;99.90;;;;;;5050879;28;20044;-47
2023/02/02 08:22:03;;;;;;;18.13;10.63;;;6.10;99.90;;;;;;5051166;28;20037;-46
2023/02/02 08:24:29;;;;;;;12.32;8.98;;;6.10;99.90;;;;;;5051070;28;20036;-46
2023/02/02 08:26:54;;;;;;;21.55;13.57;;;6.10;99.90;;;;;;5050697;28;20509;-46
2023/02/02 08:29:20;;;;;;;60.75;38.13;;;6.10;99.90;;;;;;5033758;28;20090;-46
2023/02/02 08:31:46;;;;;;;89.22;52.45;;;6.20;99.90;;;;;;5050232;28;20041;-47
2023/02/02 08:34:12;;;;;;;17.35;11.68;;;6.30;99.90;;;;;;5033913;28;20048;-46
2023/02/02 08:36:39;;;;;;;18.42;11.65;;;6.60;99.90;;;;;;5014091;28;20124;-46
2023/02/02 08:39:07;;;;;;;13.00;8.98;;;6.80;99.90;;;;;;5050839;28;20060;-46
2023/02/02 08:41:33;;;;;;;17.10;10.43;;;6.80;99.90;;;;;;5053050;28;20473;-46
2023/02/02 08:43:59;;;;;;;18.42;13.05;;;7.00;99.90;;;;;;5052905;28;20025;-47
2023/02/02 08:46:25;;;;;;;22.40;10.73;;;;;;;;;;5053185;28;20025;-46
2023/02/02 08:48:51;;;;;;;12.02;8.77;;;7.10;99.90;;;;;;5052759;28;20021;-46
2023/02/02 08:51:19;;;;;;;34.25;27.05;;;;;;;;;;5020138;28;20029;-46
2023/02/02 08:53:46;;;;;;;29.52;23.35;;;;;;;;;;5057002;28;20033;-46
2023/02/02 08:56:17;;;;;;;14.45;8.38;;;7.60;99.90;;;;;;5038094;28;20064;-46
2023/02/02 08:58:46;;;;;;;19.30;14.90;;;7.60;99.90;;;;;;5056847;28;20033;-47
2023/02/02 09:01:18;;;;;;;17.10;12.13;;;7.80;99.90;;;;;;5038076;28;20025;-46
2023/02/02 09:03:44;;;;;;;11.45;8.90;;;7.90;99.90;;;;;;5056474;28;20477;-46
2023/02/02 09:06:12;;;;;;;11.45;7.72;;;7.80;99.90;;;;;;5037873;28;20112;-46
2023/02/02 09:08:39;;;;;;;10.48;7.47;;;7.90;99.90;;;;;;5056572;28;20029;-46
2023/02/02 09:11:07;;;;;;;9.68;7.40;;;7.80;99.90;;;;;;5056655;28;20032;-46
2023/02/02 09:13:34;;;;;;;11.75;8.25;;;7.80;99.90;;;;;;5037657;28;20041;-47
2023/02/02 09:16:01;;;;;;;24.75;21.27;;;7.80;99.90;;;;;;5056415;28;20021;-46
2023/02/02 09:18:27;;;;;;;22.30;16.65;;;7.70;99.90;;;;;;5034164;28;20120;-46
2023/02/02 09:20:53;;;;;;;11.25;6.82;;;7.70;99.90;;;;;;5034285;28;20128;-46
2023/02/02 09:23:20;;;;;;;11.13;6.90;;;7.80;99.90;;;;;;5034187;28;20171;-46
2023/02/02 09:25:46;;;;;;;12.05;9.00;;;7.80;99.90;;;;;;5001215;28;20041;-46
2023/02/02 09:28:12;;;;;;;11.30;8.43;;;7.90;99.90;;;;;;5031399;28;20041;-46
2023/02/02 09:30:37;;;;;;;9.18;6.28;;;7.90;99.90;;;;;;5033282;28;20021;-47
2023/02/02 09:33:03;;;;;;;11.38;7.22;;;7.90;99.90;;;;;;5033467;28;20536;-46
2023/02/02 09:35:29;;;;;;;12.52;8.40;;;8.00;99.90;;;;;;5031772;28;20484;-46
2023/02/02 09:37:55;;;;;;;18.63;13.73;;;8.00;99.90;;;;;;4999901;28;20034;-47
2023/02/02 09:40:21;;;;;;;12.95;8.35;;;8.00;99.90;;;;;;5029253;28;20021;-46
2023/02/02 09:43:04;;;;;;;10.60;7.40;;;8.10;99.90;;;;;;5010185;28;20037;-46
2023/02/02 09:45:59;;;;;;;9.30;7.18;;;8.20;99.90;;;;;;5032259;28;20018;-46
2023/02/02 09:48:24;;;;;;;8.02;6.13;;;8.20;99.90;;;;;;5010328;28;20489;-47
2023/02/02 09:51:05;;;;;;;10.88;8.40;;;8.10;99.90;;;;;;5054923;28;20032;-46
2023/02/02 09:53:52;;;;;;;9.23;6.45;;;8.00;99.90;;;;;;5044814;28;20136;-47
2023/02/02 09:56:25;;;;;;;8.70;4.93;;;7.90;99.90;;;;;;5034794;28;20102;-46
2023/02/02 09:58:58;;;;;;;9.23;4.82;;;7.90;99.90;;;;;;5033994;28;20033;-46
2023/02/02 10:01:35;;;;;;;6.72;4.53;;;7.70;99.90;;;;;;5035436;28;20037;-46
2023/02/02 10:04:00;;;;;;;8.13;5.38;;;7.70;99.90;;;;;;5055191;28;20036;-46
2023/02/02 10:06:44;;;;;;;10.88;7.63;;;7.80;99.90;;;;;;5055268;28;20083;-46
2023/02/02 10:09:19;;;;;;;9.57;6.05;;;7.90;99.90;;;;;;5054275;28;20025;-46
2023/02/02 10:11:53;;;;;;;21.63;15.65;;;8.00;99.90;;;;;;5041649;28;20064;-46
2023/02/02 10:14:44;;;;;;;8.55;7.05;;;8.10;99.90;;;;;;5035324;28;20041;-46
2023/02/02 10:17:52;;;;;;;11.38;8.75;;;8.20;99.90;;;;;;5035175;28;20528;-46
2023/02/02 10:20:36;;;;;;;9.32;6.93;;;8.30;99.90;;;;;;5035297;28;20026;-46
2023/02/02 10:23:22;;;;;;;11.15;7.93;;;8.30;99.90;;;;;;5050041;28;20029;-46
2023/02/02 10:26:14;;;;;;;10.00;6.05;;;8.30;99.90;;;;;;5041387;28;20025;-46
2023/02/02 10:29:00;;;;;;;11.45;8.68;;;8.50;99.90;;;;;;5010878;28;20517;-47
2023/02/02 10:31:29;;;;;;;6.30;4.57;;;;;;;;;;5011766;28;20070;-47
2023/02/02 10:34:07;;;;;;;12.30;7.32;;;8.90;99.90;;;;;;5012754;28;20046;-47
2023/02/02 10:36:53;;;;;;;8.32;5.97;;;9.10;99.90;;;;;;4976899;28;20038;-48
2023/02/02 10:39:43;;;;;;;10.35;7.53;;;9.20;99.90;;;;;;4966938;28;20038;-48
2023/02/02 10:42:17;;;;;;;9.73;5.55;;;;;;;;;;4996073;28;20039;-46
2023/02/02 10:44:47;;;;;;;8.07;6.07;;;;;;;;;;4996106;28;20034;-48
2023/02/02 10:47:16;;;;;;;9.63;6.25;;;;;;;;;;5008991;28;20051;-46
2023/02/02 10:49:42;;;;;;;6.65;5.22;;;;;;;;;;4970360;28;20042;-46
2023/02/02 10:52:11;;;;;;;8.93;5.68;;;;;;;;;;4993786;28;20053;-46
2023/02/02 10:54:58;;;;;;;7.82;5.55;;;9.30;99.90;;;;;;4993127;28;20390;-46
2023/02/02 10:57:37;;;;;;;7.47;4.15;;;9.50;99.90;;;;;;4992782;28;20073;-46
2023/02/02 11:00:29;;;;;;;6.85;4.10;;;9.80;99.90;;;;;;5032123;28;20036;-46
2023/02/02 11:02:55;;;;;;;7.75;4.35;;;10.00;99.90;;;;;;5052105;28;20040;-46
2023/02/02 11:08:28;;;;;;;9.15;5.32;;;9.80;99.90;;;;;;5050180;28;20047;-58
2023/02/02 11:10:55;;;;;;;8.40;5.43;;;9.60;99.90;;;;;;5047183;28;20055;-47
2023/02/02 11:13:32;;;;;;;6.63;4.80;;;9.60;99.90;;;;;;5018398;28;20090;-46
2023/02/02 11:16:16;;;;;;;7.15;4.18;;;9.40;99.90;;;;;;5054390;28;20036;-46
2023/02/02 11:18:45;;;;;;;4.75;3.47;;;9.20;99.90;;;;;;5053811;28;20495;-46
2023/02/02 11:21:19;;;;;;;7.82;5.53;;;9.00;99.90;;;;;;5054142;28;20025;-46
2023/02/02 11:23:59;;;;;;;8.13;4.60;;;9.00;99.90;;;;;;5048600;28;20025;-46
2023/02/02 11:26:38;;;;;;;11.60;6.45;;;8.90;99.90;;;;;;5032300;28;20443;-46
2023/02/02 11:29:04;;;;;;;20.85;11.23;;;8.70;99.90;;;;;;5033888;28;20501;-46
2023/02/02 11:31:35;;;;;;;24.60;12.98;;;8.60;99.90;;;;;;5033934;28;20029;-46
2023/02/02 11:34:09;;;;;;;29.67;11.75;;;8.50;99.90;;;;;;5034178;28;20043;-46
2023/02/02 11:36:34;;;;;;;22.58;13.20;;;8.50;99.90;;;;;;5033777;28;20029;-46
2023/02/02 11:39:20;;;;;;;13.07;5.90;;;8.50;99.90;;;;;;5015187;28;20047;-47
2023/02/02 11:41:46;;;;;;;8.02;4.45;;;8.50;99.90;;;;;;5048486;28;20041;-46
2023/02/02 11:44:34;;;;;;;11.10;6.72;;;8.70;99.90;;;;;;5033758;28;20031;-46
2023/02/02 11:47:02;;;;;;;30.10;27.45;;;8.60;99.90;;;;;;5033565;28;20053;-45
2023/02/02 11:49:28;;;;;;;14.40;9.52;;;8.70;99.90;;;;;;5033383;28;20041;-46
2023/02/02 11:52:06;;;;;;;9.23;6.50;;;8.80;99.90;;;;;;5033328;28;20075;-46
2023/02/02 11:54:37;;;;;;;14.30;12.80;;;8.90;99.90;;;;;;5033850;28;20084;-46
2023/02/02 11:57:09;;;;;;;10.10;5.72;;;8.90;99.90;;;;;;5033223;28;20049;-46
2023/02/02 11:59:36;;;;;;;;;;;8.90;99.90;;;;;;5034045;28;20025;-46
2023/02/02 12:02:29;;;;;;;8.18;4.35;;;8.90;99.90;;;;;;5033335;28;20320;-46
2023/02/02 12:05:18;;;;;;;5.03;4.00;;;8.80;99.90;;;;;;5014957;28;20151;-46
2023/02/02 12:07:43;;;;;;;4.13;2.90;;;8.40;99.90;;;;;;5031428;28;20065;-46
2023/02/02 12:10:42;;;;;;;4.90;3.00;;;8.30;99.90;;;;;;5033207;28;20053;-46
2023/02/02 12:13:18;;;;;;;6.82;4.45;;;8.40;99.90;;;;;;5050311;28;20063;-45
2023/02/02 12:16:05;;;;;;;3.80;2.45;;;8.50;99.90;;;;;;5031922;28;20103;-46
2023/02/02 12:18:54;;;;;;;4.03;2.95;;;8.40;99.90;;;;;;5031124;28;20133;-46
2023/02/02 12:21:36;;;;;;;6.80;3.47;;;8.40;99.90;;;;;;5031242;28;20117;-46
2023/02/02 12:24:30;;;;;;;10.05;4.90;;;8.30;99.90;;;;;;5031593;28;20561;-46
2023/02/02 12:27:12;;;;;;;9.90;4.88;;;8.30;99.90;;;;;;5035391;28;20043;-46
2023/02/02 12:29:47;;;;;;;7.65;4.80;;;8.40;99.90;;;;;;5018702;28;20029;-46
2023/02/02 12:32:25;;;;;;;7.57;4.22;;;8.50;99.90;;;;;;5035258;28;20065;-46
2023/02/02 12:35:09;;;;;;;5.05;3.35;;;8.60;99.90;;;;;;5035145;28;20049;-46
2023/02/02 12:38:19;;;;;;;4.15;3.00;;;8.70;99.90;;;;;;5050609;28;20072;-47
2023/02/02 12:40:57;;;;;;;10.48;6.03;;;8.80;99.90;;;;;;5026970;28;20064;-46
2023/02/02 12:43:26;;;;;;;15.15;7.80;;;8.80;99.90;;;;;;5034826;28;20533;-46
2023/02/02 12:46:19;;;;;;;8.10;5.25;;;8.80;99.90;;;;;;5034749;28;20501;-46
2023/02/02 12:49:03;;;;;;;8.05;5.68;;;8.80;99.90;;;;;;5035272;28;20045;-46
2023/02/02 12:51:47;;;;;;;11.10;5.57;;;8.90;99.90;;;;;;5036637;28;20124;-46
2023/02/02 12:54:21;;;;;;;7.07;4.47;;;8.70;99.90;;;;;;5048897;28;20499;-46
2023/02/02 12:57:01;;;;;;;10.00;6.15;;;8.80;99.90;;;;;;5056519;28;20049;-45
2023/02/02 12:59:45;;;;;;;9.27;5.50;;;8.70;99.90;;;;;;5056580;28;20082;-46
2023/02/02 13:02:39;;;;;;;8.05;4.30;;;8.70;99.90;;;;;;5054665;28;20039;-46
2023/02/02 13:05:38;;;;;;;7.05;4.40;;;8.80;99.90;;;;;;5054134;28;20032;-46
2023/02/02 13:08:32;;;;;;;6.13;3.75;;;8.80;99.90;;;;;;5032966;28;20083;-46
2023/02/02 13:11:31;;;;;;;4.82;3.70;;;8.70;99.90;;;;;;5056458;28;20047;-46
2023/02/02 13:14:20;;;;;;;9.45;5.78;;;8.70;99.90;;;;;;5054191;28;20041;-46
2023/02/02 13:16:51;;;;;;;13.60;8.18;;;8.60;99.90;;;;;;5053755;28;20041;-46
2023/02/02 13:19:37;;;;;;;5.05;3.33;;;8.60;99.90;;;;;;5049505;28;20037;-47
2023/02/02 13:22:07;;;;;;;4.72;2.88;;;8.50;99.90;;;;;;5049023;28;20052;-46
2023/02/02 13:24:37;;;;;;;4.82;3.42;;;8.50;99.90;;;;;;5053889;28;20057;-47
2023/02/02 13:27:06;;;;;;;4.85;3.22;;;8.40;99.90;;;;;;5052289;28;20095;-46
2023/02/02 13:29:53;;;;;;;5.55;3.22;;;8.40;99.90;;;;;;5033900;28;20033;-46
2023/02/02 13:32:37;;;;;;;3.85;2.92;;;8.50;99.90;;;;;;5033847;28;20440;-46
2023/02/02 13:35:14;;;;;;;4.93;3.63;;;8.50;99.90;;;;;;5040814;28;20060;-46
2023/02/02 13:37:55;;;;;;;7.03;3.30;;;8.50;99.90;;;;;;5048485;28;20040;-46
2023/02/02 13:40:35;;;;;;;3.45;2.50;;;8.50;99.90;;;;;;5043089;28;20028;-46